FFT516 KCLE-KBOS
Flight info
| Callsign | FFT516 |
|---|---|
| Flight time | N/A |
| Altitude | 37000 |
| Route | PFLYD1 JASEE JHW Q82 PONCT JFUND2 |
| Aircraft | A321/M-SDE3FGHIRWY/LB1 |
Departure
| Time | 2026-05-07 01:05 |
|---|---|
| Airport | Cleveland Hopkins International Airport (KCLE) |
Arrival
| Time | N/A |
|---|---|
| Airport | Boston Logan International Airport (KBOS) |
| Time | Latitude | Longitude | Altitude | Speed | Heading |
|---|---|---|---|---|---|
| 2026-05-07 00:47 | 41.41260 | -81.83912 | 759 ft | 0 kts | 100° |
| 2026-05-07 00:55 | 41.41263 | -81.83934 | 759 ft | 4 kts | 100° |
| 2026-05-07 00:56 | 41.41268 | -81.83969 | 759 ft | 4 kts | 100° |
| 2026-05-07 00:56 | 41.41273 | -81.84004 | 759 ft | 4 kts | 107° |
| 2026-05-07 00:56 | 41.41283 | -81.84037 | 759 ft | 4 kts | 126° |
| 2026-05-07 00:56 | 41.41298 | -81.84058 | 759 ft | 1 kts | 146° |
| 2026-05-07 00:59 | 41.41278 | -81.84063 | 759 ft | 0 kts | 205° |
| 2026-05-07 00:59 | 41.41267 | -81.84087 | 759 ft | 0 kts | 254° |
| 2026-05-07 00:59 | 41.41252 | -81.84174 | 759 ft | 18 kts | 258° |
| 2026-05-07 01:00 | 41.41247 | -81.84313 | 759 ft | 13 kts | 274° |
| 2026-05-07 01:00 | 41.41194 | -81.84465 | 759 ft | 21 kts | 238° |
| 2026-05-07 01:00 | 41.41111 | -81.84643 | 760 ft | 25 kts | 224° |
| 2026-05-07 01:00 | 41.41004 | -81.84813 | 760 ft | 24 kts | 230° |
| 2026-05-07 01:01 | 41.40892 | -81.84989 | 759 ft | 25 kts | 230° |
| 2026-05-07 01:01 | 41.40780 | -81.85164 | 759 ft | 25 kts | 230° |
| 2026-05-07 01:01 | 41.40666 | -81.85346 | 759 ft | 26 kts | 230° |
| 2026-05-07 01:01 | 41.40549 | -81.85534 | 759 ft | 27 kts | 230° |
| 2026-05-07 01:02 | 41.40428 | -81.85724 | 760 ft | 27 kts | 230° |
| 2026-05-07 01:02 | 41.40308 | -81.85900 | 759 ft | 25 kts | 219° |
| 2026-05-07 01:02 | 41.40147 | -81.85987 | 764 ft | 25 kts | 215° |
| 2026-05-07 01:02 | 41.40026 | -81.86161 | 759 ft | 26 kts | 230° |
| 2026-05-07 01:03 | 41.39907 | -81.86350 | 759 ft | 27 kts | 230° |
| 2026-05-07 01:03 | 41.39788 | -81.86533 | 759 ft | 17 kts | 227° |
| 2026-05-07 01:03 | 41.39744 | -81.86654 | 760 ft | 13 kts | 286° |
| 2026-05-07 01:03 | 41.39775 | -81.86714 | 760 ft | 4 kts | 317° |
| 2026-05-07 01:04 | 41.39801 | -81.86746 | 760 ft | 11 kts | 317° |
| 2026-05-07 01:04 | 41.39885 | -81.86783 | 759 ft | 16 kts | 18° |
| 2026-05-07 01:04 | 41.39937 | -81.86725 | 758 ft | 2 kts | 47° |
| 2026-05-07 01:04 | 41.40139 | -81.86407 | 757 ft | 88 kts | 50° |
| 2026-05-07 01:05 | 41.40689 | -81.85532 | 825 ft | 145 kts | 51° |
| 2026-05-07 01:05 | 41.41238 | -81.84581 | 1705 ft | 123 kts | 54° |
| 2026-05-07 01:05 | 41.41751 | -81.83595 | 2082 ft | 141 kts | 56° |
| 2026-05-07 01:05 | 41.42328 | -81.82388 | 2432 ft | 165 kts | 53° |
| 2026-05-07 01:06 | 41.43327 | -81.81451 | 2804 ft | 194 kts | 12° |
| 2026-05-07 01:06 | 41.44712 | -81.81067 | 3417 ft | 213 kts | 9° |
| 2026-05-07 01:06 | 41.46235 | -81.80497 | 4039 ft | 241 kts | 17° |
| 2026-05-07 01:06 | 41.47873 | -81.79632 | 4838 ft | 263 kts | 21° |
| 2026-05-07 01:07 | 41.49479 | -81.78348 | 5693 ft | 278 kts | 36° |
| 2026-05-07 01:07 | 41.50817 | -81.76440 | 6418 ft | 285 kts | 51° |
| 2026-05-07 01:07 | 41.52001 | -81.74293 | 7219 ft | 288 kts | 50° |
| 2026-05-07 01:07 | 41.53234 | -81.72152 | 7979 ft | 293 kts | 49° |
| 2026-05-07 01:08 | 41.54509 | -81.69984 | 8719 ft | 299 kts | 48° |
| 2026-05-07 01:08 | 41.55811 | -81.67786 | 9454 ft | 305 kts | 48° |
| 2026-05-07 01:08 | 41.57141 | -81.65543 | 10147 ft | 312 kts | 48° |
| 2026-05-07 01:08 | 41.58523 | -81.63203 | 10460 ft | 332 kts | 48° |
| 2026-05-07 01:09 | 41.59996 | -81.60696 | 10721 ft | 352 kts | 49° |
| 2026-05-07 01:09 | 41.61525 | -81.58077 | 11277 ft | 361 kts | 49° |
| 2026-05-07 01:09 | 41.63084 | -81.55392 | 11899 ft | 368 kts | 50° |
| 2026-05-07 01:09 | 41.64469 | -81.52471 | 12521 ft | 377 kts | 62° |
| 2026-05-07 01:10 | 41.65444 | -81.49183 | 13133 ft | 384 kts | 73° |
| 2026-05-07 01:10 | 41.66219 | -81.45740 | 13759 ft | 390 kts | 73° |
| 2026-05-07 01:10 | 41.67018 | -81.42242 | 14327 ft | 396 kts | 73° |
| 2026-05-07 01:10 | 41.67557 | -81.39910 | 14736 ft | 398 kts | 73° |
| 2026-05-07 01:11 | 41.68382 | -81.36350 | 15283 ft | 403 kts | 72° |
| 2026-05-07 01:11 | 41.69218 | -81.32745 | 15806 ft | 409 kts | 72° |
| 2026-05-07 01:11 | 41.70063 | -81.29080 | 16319 ft | 415 kts | 72° |
| 2026-05-07 01:11 | 41.70917 | -81.25350 | 16791 ft | 422 kts | 73° |
| 2026-05-07 01:12 | 41.71781 | -81.21561 | 17249 ft | 429 kts | 73° |
| 2026-05-07 01:12 | 41.72657 | -81.17717 | 17746 ft | 435 kts | 73° |
| 2026-05-07 01:12 | 41.73546 | -81.13804 | 18250 ft | 441 kts | 73° |
| 2026-05-07 01:12 | 41.74442 | -81.09853 | 18685 ft | 447 kts | 73° |
| 2026-05-07 01:13 | 41.75349 | -81.05849 | 19128 ft | 452 kts | 73° |
| 2026-05-07 01:13 | 41.76265 | -81.01801 | 19585 ft | 456 kts | 72° |
| 2026-05-07 01:13 | 41.77193 | -80.97706 | 20041 ft | 461 kts | 72° |
| 2026-05-07 01:13 | 41.78123 | -80.93625 | 20482 ft | 466 kts | 72° |
| 2026-05-07 01:14 | 41.79091 | -80.89400 | 20921 ft | 471 kts | 72° |
| 2026-05-07 01:14 | 41.80049 | -80.85231 | 21329 ft | 477 kts | 72° |
| 2026-05-07 01:14 | 41.81026 | -80.80966 | 21763 ft | 482 kts | 72° |
| 2026-05-07 01:14 | 41.82021 | -80.76600 | 22206 ft | 486 kts | 72° |
| 2026-05-07 01:15 | 41.83010 | -80.72241 | 22745 ft | 488 kts | 72° |
| 2026-05-07 01:15 | 41.83993 | -80.67887 | 23372 ft | 488 kts | 72° |
| 2026-05-07 01:15 | 41.84968 | -80.63569 | 23793 ft | 492 kts | 72° |
| 2026-05-07 01:15 | 41.85965 | -80.59147 | 24120 ft | 496 kts | 72° |
| 2026-05-07 01:16 | 41.86978 | -80.54694 | 24445 ft | 501 kts | 72° |
| 2026-05-07 01:16 | 41.88012 | -80.50209 | 24666 ft | 508 kts | 71° |
| 2026-05-07 01:16 | 41.89071 | -80.45649 | 24923 ft | 514 kts | 71° |
| 2026-05-07 01:16 | 41.90140 | -80.41056 | 25225 ft | 518 kts | 71° |
| 2026-05-07 01:17 | 41.91211 | -80.36418 | 25529 ft | 522 kts | 71° |
| 2026-05-07 01:17 | 41.92284 | -80.31746 | 25833 ft | 526 kts | 72° |
| 2026-05-07 01:17 | 41.93361 | -80.27026 | 26133 ft | 530 kts | 72° |
| 2026-05-07 01:17 | 41.94440 | -80.22274 | 26427 ft | 534 kts | 72° |
| 2026-05-07 01:18 | 41.95528 | -80.17466 | 26721 ft | 538 kts | 72° |
| 2026-05-07 01:18 | 41.96618 | -80.12641 | 26951 ft | 543 kts | 72° |
| 2026-05-07 01:18 | 41.97718 | -80.07768 | 27288 ft | 547 kts | 72° |
| 2026-05-07 01:18 | 41.98826 | -80.02857 | 27650 ft | 548 kts | 72° |
| 2026-05-07 01:19 | 41.99932 | -79.97954 | 27965 ft | 551 kts | 72° |
| 2026-05-07 01:19 | 42.01047 | -79.93006 | 28238 ft | 554 kts | 72° |
| 2026-05-07 01:19 | 42.02167 | -79.88027 | 28494 ft | 558 kts | 72° |
| 2026-05-07 01:19 | 42.03292 | -79.83012 | 28752 ft | 562 kts | 72° |
| 2026-05-07 01:20 | 42.04420 | -79.77958 | 28969 ft | 565 kts | 72° |
| 2026-05-07 01:20 | 42.05549 | -79.72877 | 29242 ft | 568 kts | 72° |
| 2026-05-07 01:20 | 42.06682 | -79.67769 | 29493 ft | 571 kts | 72° |
| 2026-05-07 01:20 | 42.07819 | -79.62627 | 29737 ft | 575 kts | 72° |
| 2026-05-07 01:21 | 42.08959 | -79.57464 | 29964 ft | 578 kts | 72° |
| 2026-05-07 01:21 | 42.10092 | -79.52326 | 30163 ft | 581 kts | 72° |
| 2026-05-07 01:21 | 42.11255 | -79.47032 | 30358 ft | 584 kts | 72° |
| 2026-05-07 01:21 | 42.12393 | -79.41851 | 30524 ft | 586 kts | 72° |
| 2026-05-07 01:22 | 42.13552 | -79.36577 | 30786 ft | 588 kts | 72° |
| 2026-05-07 01:22 | 42.14715 | -79.31276 | 30997 ft | 589 kts | 72° |
| 2026-05-07 01:22 | 42.15873 | -79.25977 | 31263 ft | 590 kts | 72° |
| 2026-05-07 01:22 | 42.17026 | -79.20681 | 31543 ft | 590 kts | 72° |
| 2026-05-07 01:23 | 42.18179 | -79.15362 | 31821 ft | 590 kts | 72° |
| 2026-05-07 01:23 | 42.19152 | -79.09992 | 32078 ft | 591 kts | 80° |
| 2026-05-07 01:23 | 42.19841 | -79.04521 | 32291 ft | 592 kts | 81° |
| 2026-05-07 01:23 | 42.20531 | -78.99050 | 32548 ft | 592 kts | 80° |
| 2026-05-07 01:24 | 42.21228 | -78.93579 | 32811 ft | 592 kts | 80° |
| 2026-05-07 01:24 | 42.21931 | -78.88100 | 33064 ft | 593 kts | 80° |
| 2026-05-07 01:24 | 42.22636 | -78.82612 | 33326 ft | 594 kts | 80° |
| 2026-05-07 01:24 | 42.23342 | -78.77118 | 33595 ft | 594 kts | 80° |
| 2026-05-07 01:25 | 42.24040 | -78.71623 | 33874 ft | 595 kts | 80° |
| 2026-05-07 01:25 | 42.24730 | -78.66126 | 34095 ft | 595 kts | 80° |
| 2026-05-07 01:25 | 42.25415 | -78.60616 | 34341 ft | 594 kts | 80° |
| 2026-05-07 01:25 | 42.26094 | -78.55120 | 34600 ft | 593 kts | 80° |
| 2026-05-07 01:26 | 42.26769 | -78.49636 | 34890 ft | 591 kts | 80° |
| 2026-05-07 01:26 | 42.27439 | -78.44160 | 35173 ft | 589 kts | 80° |
| 2026-05-07 01:26 | 42.28109 | -78.38699 | 35453 ft | 587 kts | 80° |
| 2026-05-07 01:26 | 42.28777 | -78.33267 | 35725 ft | 585 kts | 80° |
| 2026-05-07 01:27 | 42.29439 | -78.27851 | 35956 ft | 584 kts | 80° |
| 2026-05-07 01:27 | 42.30094 | -78.22442 | 36195 ft | 582 kts | 81° |
| 2026-05-07 01:27 | 42.30743 | -78.17052 | 36416 ft | 581 kts | 81° |
| 2026-05-07 01:27 | 42.31389 | -78.11671 | 36641 ft | 579 kts | 81° |
| 2026-05-07 01:28 | 42.32026 | -78.06375 | 36858 ft | 578 kts | 81° |
| 2026-05-07 01:28 | 42.32669 | -78.01022 | 36963 ft | 577 kts | 81° |
| 2026-05-07 01:28 | 42.33310 | -77.95671 | 36928 ft | 575 kts | 81° |
| 2026-05-07 01:29 | 42.34575 | -77.85013 | 36962 ft | 575 kts | 81° |
| 2026-05-07 01:29 | 42.35823 | -77.74326 | 36974 ft | 575 kts | 81° |
| 2026-05-07 01:30 | 42.37055 | -77.63673 | 36962 ft | 570 kts | 81° |
| 2026-05-07 01:30 | 42.38270 | -77.53086 | 36942 ft | 569 kts | 81° |
| 2026-05-07 01:31 | 42.39479 | -77.42509 | 36952 ft | 569 kts | 81° |
| 2026-05-07 01:31 | 42.40683 | -77.31916 | 36960 ft | 569 kts | 81° |
| 2026-05-07 01:32 | 42.41876 | -77.21334 | 36918 ft | 569 kts | 81° |
| 2026-05-07 01:32 | 42.43053 | -77.10740 | 36939 ft | 569 kts | 81° |
| 2026-05-07 01:33 | 42.44214 | -77.00138 | 36941 ft | 570 kts | 82° |
| 2026-05-07 01:33 | 42.45369 | -76.89524 | 36957 ft | 570 kts | 82° |
| 2026-05-07 01:34 | 42.46518 | -76.78897 | 36989 ft | 570 kts | 82° |
| 2026-05-07 01:34 | 42.47652 | -76.68355 | 36983 ft | 568 kts | 82° |
| 2026-05-07 01:35 | 42.48793 | -76.57772 | 36978 ft | 567 kts | 82° |
| 2026-05-07 01:35 | 42.49923 | -76.47201 | 36942 ft | 566 kts | 82° |
| 2026-05-07 01:36 | 42.51031 | -76.36629 | 36955 ft | 566 kts | 82° |
| 2026-05-07 01:36 | 42.52116 | -76.26060 | 36962 ft | 566 kts | 82° |
| 2026-05-07 01:37 | 42.53199 | -76.15486 | 36964 ft | 566 kts | 82° |
| 2026-05-07 01:37 | 42.54273 | -76.04910 | 36947 ft | 566 kts | 82° |
| 2026-05-07 01:38 | 42.55336 | -75.94312 | 36947 ft | 567 kts | 82° |
| 2026-05-07 01:38 | 42.56387 | -75.83792 | 36932 ft | 563 kts | 82° |
| 2026-05-07 01:39 | 42.57426 | -75.73295 | 36907 ft | 561 kts | 82° |
| 2026-05-07 01:39 | 42.58453 | -75.62793 | 36920 ft | 562 kts | 82° |
| 2026-05-07 01:40 | 42.59475 | -75.52274 | 36927 ft | 562 kts | 82° |
| 2026-05-07 01:40 | 42.60494 | -75.41741 | 36894 ft | 562 kts | 82° |
| 2026-05-07 01:41 | 42.61498 | -75.31225 | 36933 ft | 562 kts | 82° |
| 2026-05-07 01:41 | 42.62495 | -75.20696 | 36943 ft | 562 kts | 83° |
| 2026-05-07 01:42 | 42.63475 | -75.10164 | 36948 ft | 562 kts | 83° |
| 2026-05-07 01:42 | 42.64445 | -74.99624 | 36960 ft | 561 kts | 83° |
| 2026-05-07 01:43 | 42.65406 | -74.89169 | 36961 ft | 560 kts | 83° |
| 2026-05-07 01:43 | 42.66353 | -74.78686 | 36955 ft | 558 kts | 83° |
| 2026-05-07 01:44 | 42.67289 | -74.68218 | 36946 ft | 557 kts | 83° |
| 2026-05-07 01:44 | 42.68217 | -74.57765 | 36928 ft | 557 kts | 83° |
| 2026-05-07 01:45 | 42.69134 | -74.47300 | 36917 ft | 557 kts | 83° |
| 2026-05-07 01:45 | 42.70040 | -74.36850 | 36919 ft | 556 kts | 83° |
| 2026-05-07 01:46 | 42.70935 | -74.26395 | 36902 ft | 556 kts | 83° |
| 2026-05-07 01:46 | 42.71823 | -74.15952 | 36904 ft | 556 kts | 83° |
| 2026-05-07 01:47 | 42.72703 | -74.05513 | 36916 ft | 554 kts | 84° |
| 2026-05-07 01:47 | 42.73567 | -73.95105 | 36923 ft | 554 kts | 84° |
| 2026-05-07 01:48 | 42.74414 | -73.84680 | 36771 ft | 557 kts | 84° |
| 2026-05-07 01:48 | 42.74684 | -73.79427 | 36259 ft | 555 kts | 92° |
| 2026-05-07 01:48 | 42.74656 | -73.74189 | 35745 ft | 552 kts | 92° |
| 2026-05-07 01:48 | 42.74620 | -73.68990 | 35227 ft | 549 kts | 92° |
| 2026-05-07 01:49 | 42.74580 | -73.63877 | 34685 ft | 547 kts | 92° |
| 2026-05-07 01:49 | 42.74538 | -73.58719 | 34198 ft | 544 kts | 92° |
| 2026-05-07 01:49 | 42.74496 | -73.53576 | 33635 ft | 544 kts | 92° |
| 2026-05-07 01:49 | 42.74452 | -73.48447 | 33118 ft | 541 kts | 92° |
| 2026-05-07 01:50 | 42.74406 | -73.43341 | 32595 ft | 538 kts | 92° |
| 2026-05-07 01:50 | 42.74362 | -73.38265 | 32094 ft | 535 kts | 92° |
| 2026-05-07 01:50 | 42.74320 | -73.33214 | 31594 ft | 533 kts | 92° |
| 2026-05-07 01:50 | 42.74275 | -73.28187 | 31053 ft | 530 kts | 92° |
| 2026-05-07 01:51 | 42.74225 | -73.23199 | 30612 ft | 526 kts | 93° |
| 2026-05-07 01:51 | 42.74168 | -73.18231 | 30127 ft | 523 kts | 93° |
| 2026-05-07 01:51 | 42.74103 | -73.13294 | 29602 ft | 521 kts | 95° |
| 2026-05-07 01:51 | 42.73743 | -73.08435 | 29112 ft | 511 kts | 103° |
| 2026-05-07 01:52 | 42.73193 | -73.03684 | 28652 ft | 507 kts | 103° |
| 2026-05-07 01:52 | 42.72644 | -72.98960 | 28200 ft | 502 kts | 103° |
| 2026-05-07 01:52 | 42.72101 | -72.94286 | 27718 ft | 498 kts | 103° |
| 2026-05-07 01:52 | 42.71563 | -72.89652 | 27285 ft | 494 kts | 103° |
| 2026-05-07 01:53 | 42.71027 | -72.85053 | 26836 ft | 490 kts | 103° |
| 2026-05-07 01:53 | 42.70674 | -72.82025 | 26526 ft | 488 kts | 103° |
| 2026-05-07 01:53 | 42.69965 | -72.75964 | 25886 ft | 483 kts | 103° |
| 2026-05-07 01:53 | 42.69436 | -72.71464 | 25417 ft | 481 kts | 104° |
| 2026-05-07 01:54 | 42.69086 | -72.68508 | 25200 ft | 476 kts | 104° |
| 2026-05-07 01:54 | 42.68557 | -72.64071 | 24723 ft | 473 kts | 104° |
| 2026-05-07 01:54 | 42.67865 | -72.58271 | 24106 ft | 463 kts | 104° |
| 2026-05-07 01:54 | 42.67347 | -72.53981 | 23464 ft | 459 kts | 104° |
| 2026-05-07 01:55 | 42.66830 | -72.49739 | 23121 ft | 452 kts | 104° |
| 2026-05-07 01:55 | 42.66481 | -72.46895 | 22766 ft | 451 kts | 104° |
| 2026-05-07 01:55 | 42.65968 | -72.42720 | 22206 ft | 444 kts | 104° |
| 2026-05-07 01:55 | 42.65464 | -72.38618 | 21546 ft | 435 kts | 104° |
| 2026-05-07 01:56 | 42.64977 | -72.34632 | 21162 ft | 422 kts | 105° |
| 2026-05-07 01:56 | 42.64493 | -72.30707 | 20691 ft | 421 kts | 105° |
| 2026-05-07 01:56 | 42.64027 | -72.26832 | 20544 ft | 410 kts | 105° |